sensor_id;sensor_type;location;lat;lon;timestamp;pressure;altitude;pressure_sealevel;temperature;humidity
45813;BME280;31519;45.408;10.962;2023-04-09T00:00:31;101071.09;;;15.27;69.44
45813;BME280;31519;45.408;10.962;2023-04-09T00:03:18;101077.22;;;15.36;69.03
45813;BME280;31519;45.408;10.962;2023-04-09T00:05:47;101074.97;;;15.46;68.07
45813;BME280;31519;45.408;10.962;2023-04-09T00:08:14;101085.47;;;15.22;68.50
45813;BME280;31519;45.408;10.962;2023-04-09T00:10:42;101078.94;;;15.40;68.39
45813;BME280;31519;45.408;10.962;2023-04-09T00:13:10;101081.66;;;15.32;68.88
45813;BME280;31519;45.408;10.962;2023-04-09T00:15:38;101074.91;;;15.26;69.60
45813;BME280;31519;45.408;10.962;2023-04-09T00:18:05;101073.13;;;15.38;70.41
45813;BME280;31519;45.408;10.962;2023-04-09T00:20:33;101079.53;;;15.55;71.08
45813;BME280;31519;45.408;10.962;2023-04-09T00:23:01;101071.66;;;15.41;71.90
45813;BME280;31519;45.408;10.962;2023-04-09T00:25:29;101068.56;;;15.30;73.40
45813;BME280;31519;45.408;10.962;2023-04-09T00:27:56;101082.94;;;15.17;75.72
45813;BME280;31519;45.408;10.962;2023-04-09T00:30:24;101081.88;;;15.09;75.18
45813;BME280;31519;45.408;10.962;2023-04-09T00:32:54;101077.94;;;15.16;76.13
45813;BME280;31519;45.408;10.962;2023-04-09T00:35:22;101079.69;;;15.03;77.09
45813;BME280;31519;45.408;10.962;2023-04-09T00:37:50;101086.19;;;14.93;76.24
45813;BME280;31519;45.408;10.962;2023-04-09T00:40:18;101092.00;;;14.95;77.89
45813;BME280;31519;45.408;10.962;2023-04-09T00:42:45;101086.81;;;14.90;78.74
45813;BME280;31519;45.408;10.962;2023-04-09T00:45:15;101082.09;;;14.53;80.67
45813;BME280;31519;45.408;10.962;2023-04-09T00:47:42;101070.25;;;14.28;77.56
45813;BME280;31519;45.408;10.962;2023-04-09T00:50:13;101072.66;;;14.55;78.50
45813;BME280;31519;45.408;10.962;2023-04-09T00:52:40;101064.63;;;14.47;77.51
45813;BME280;31519;45.408;10.962;2023-04-09T00:55:09;101065.19;;;14.35;79.14
45813;BME280;31519;45.408;10.962;2023-04-09T00:57:37;101069.97;;;14.38;84.16
45813;BME280;31519;45.408;10.962;2023-04-09T01:00:05;101072.63;;;14.81;83.72
45813;BME280;31519;45.408;10.962;2023-04-09T01:02:34;101072.78;;;14.93;83.12
45813;BME280;31519;45.408;10.962;2023-04-09T01:05:02;101078.50;;;14.66;84.41
45813;BME280;31519;45.408;10.962;2023-04-09T01:15:53;101080.22;;;14.79;85.42
45813;BME280;31519;45.408;10.962;2023-04-09T01:18:28;101090.44;;;14.86;84.85
45813;BME280;31519;45.408;10.962;2023-04-09T01:21:14;101091.25;;;14.78;84.54
45813;BME280;31519;45.408;10.962;2023-04-09T01:23:46;101095.50;;;14.44;85.73
45813;BME280;31519;45.408;10.962;2023-04-09T01:28:55;101107.28;;;14.35;87.18
45813;BME280;31519;45.408;10.962;2023-04-09T01:31:26;101107.50;;;14.47;86.34
45813;BME280;31519;45.408;10.962;2023-04-09T01:33:54;101107.03;;;14.53;85.92
45813;BME280;31519;45.408;10.962;2023-04-09T01:36:23;101107.97;;;14.40;85.29
45813;BME280;31519;45.408;10.962;2023-04-09T01:38:52;101102.00;;;14.60;85.05
45813;BME280;31519;45.408;10.962;2023-04-09T01:41:22;101105.13;;;14.54;85.04
45813;BME280;31519;45.408;10.962;2023-04-09T01:43:52;101103.25;;;14.46;85.05
45813;BME280;31519;45.408;10.962;2023-04-09T01:46:20;101104.19;;;14.58;84.49
45813;BME280;31519;45.408;10.962;2023-04-09T01:48:49;101117.59;;;14.50;84.85
45813;BME280;31519;45.408;10.962;2023-04-09T01:51:18;101110.91;;;14.21;84.92
45813;BME280;31519;45.408;10.962;2023-04-09T01:53:47;101115.53;;;14.55;84.42
45813;BME280;31519;45.408;10.962;2023-04-09T01:56:15;101111.38;;;14.24;86.18
45813;BME280;31519;45.408;10.962;2023-04-09T01:58:43;101109.34;;;14.20;85.77
45813;BME280;31519;45.408;10.962;2023-04-09T02:04:04;101110.47;;;14.37;84.15
45813;BME280;31519;45.408;10.962;2023-04-09T02:06:31;101116.00;;;14.49;82.67
45813;BME280;31519;45.408;10.962;2023-04-09T02:09:00;101117.56;;;14.33;83.61
45813;BME280;31519;45.408;10.962;2023-04-09T02:11:29;101115.69;;;14.59;82.76
45813;BME280;31519;45.408;10.962;2023-04-09T02:13:59;101106.06;;;14.49;81.93
45813;BME280;31519;45.408;10.962;2023-04-09T02:16:28;101111.91;;;14.43;82.02
45813;BME280;31519;45.408;10.962;2023-04-09T02:18:55;101115.66;;;14.33;81.76
45813;BME280;31519;45.408;10.962;2023-04-09T02:21:23;101111.59;;;14.36;81.62
45813;BME280;31519;45.408;10.962;2023-04-09T02:23:53;101113.59;;;14.30;81.44
45813;BME280;31519;45.408;10.962;2023-04-09T02:26:24;101117.22;;;14.26;82.14
45813;BME280;31519;45.408;10.962;2023-04-09T02:28:51;101121.94;;;14.20;83.25
45813;BME280;31519;45.408;10.962;2023-04-09T02:31:20;101113.66;;;14.39;82.33
45813;BME280;31519;45.408;10.962;2023-04-09T02:33:48;101124.38;;;14.39;82.11
45813;BME280;31519;45.408;10.962;2023-04-09T02:36:16;101119.03;;;14.47;81.07
45813;BME280;31519;45.408;10.962;2023-04-09T02:38:43;101114.75;;;14.46;82.35
45813;BME280;31519;45.408;10.962;2023-04-09T02:41:11;101119.47;;;14.49;80.42
45813;BME280;31519;45.408;10.962;2023-04-09T02:43:38;101110.50;;;14.54;80.80
45813;BME280;31519;45.408;10.962;2023-04-09T02:46:06;101111.28;;;14.63;81.60
45813;BME280;31519;45.408;10.962;2023-04-09T02:48:36;101112.88;;;14.64;82.77
45813;BME280;31519;45.408;10.962;2023-04-09T02:51:04;101118.53;;;14.71;81.67
45813;BME280;31519;45.408;10.962;2023-04-09T02:53:32;101117.28;;;14.69;80.79
45813;BME280;31519;45.408;10.962;2023-04-09T02:56:00;101112.56;;;14.66;80.85
45813;BME280;31519;45.408;10.962;2023-04-09T02:58:28;101112.56;;;14.74;80.89
45813;BME280;31519;45.408;10.962;2023-04-09T03:00:56;101111.75;;;14.82;79.26
45813;BME280;31519;45.408;10.962;2023-04-09T03:03:23;101115.25;;;14.66;80.65
45813;BME280;31519;45.408;10.962;2023-04-09T03:05:52;101107.66;;;14.76;80.12
45813;BME280;31519;45.408;10.962;2023-04-09T03:08:19;101115.69;;;14.42;82.50
45813;BME280;31519;45.408;10.962;2023-04-09T03:10:47;101108.59;;;14.46;81.93
45813;BME280;31519;45.408;10.962;2023-04-09T03:13:15;101108.94;;;14.61;82.65
45813;BME280;31519;45.408;10.962;2023-04-09T03:15:43;101112.88;;;14.47;83.12
45813;BME280;31519;45.408;10.962;2023-04-09T03:18:11;101113.47;;;14.44;85.07
45813;BME280;31519;45.408;10.962;2023-04-09T03:20:39;101117.13;;;14.74;83.64
45813;BME280;31519;45.408;10.962;2023-04-09T03:23:09;101122.78;;;14.81;82.69
45813;BME280;31519;45.408;10.962;2023-04-09T03:25:42;101116.47;;;14.85;81.99
45813;BME280;31519;45.408;10.962;2023-04-09T03:28:13;101123.25;;;14.48;83.67
45813;BME280;31519;45.408;10.962;2023-04-09T03:30:46;101118.72;;;14.66;82.36
45813;BME280;31519;45.408;10.962;2023-04-09T03:33:14;101112.38;;;14.53;83.21
45813;BME280;31519;45.408;10.962;2023-04-09T03:35:56;101109.25;;;14.43;83.69
45813;BME280;31519;45.408;10.962;2023-04-09T03:38:44;101118.34;;;14.25;84.47
45813;BME280;31519;45.408;10.962;2023-04-09T03:41:25;101116.34;;;14.39;85.56
45813;BME280;31519;45.408;10.962;2023-04-09T03:43:54;101112.53;;;14.40;85.03
45813;BME280;31519;45.408;10.962;2023-04-09T03:46:27;101115.69;;;14.42;87.50
45813;BME280;31519;45.408;10.962;2023-04-09T03:48:57;101109.69;;;14.36;87.80
45813;BME280;31519;45.408;10.962;2023-04-09T03:51:34;101111.59;;;14.53;86.82
45813;BME280;31519;45.408;10.962;2023-04-09T03:54:03;101114.59;;;14.43;87.07
45813;BME280;31519;45.408;10.962;2023-04-09T03:56:33;101114.75;;;14.38;87.32
45813;BME280;31519;45.408;10.962;2023-04-09T03:59:03;101114.44;;;14.48;86.38
45813;BME280;31519;45.408;10.962;2023-04-09T04:01:39;101115.31;;;14.35;86.10
45813;BME280;31519;45.408;10.962;2023-04-09T04:04:08;101115.84;;;14.71;84.92
45813;BME280;31519;45.408;10.962;2023-04-09T04:06:50;101109.53;;;14.41;86.49
45813;BME280;31519;45.408;10.962;2023-04-09T04:09:38;101113.00;;;14.68;84.76
45813;BME280;31519;45.408;10.962;2023-04-09T04:12:12;101113.50;;;14.61;83.87
45813;BME280;31519;45.408;10.962;2023-04-09T04:14:59;101117.75;;;14.45;85.33
45813;BME280;31519;45.408;10.962;2023-04-09T04:17:44;101118.22;;;14.38;85.03
45813;BME280;31519;45.408;10.962;2023-04-09T04:20:24;101120.91;;;14.73;83.54
45813;BME280;31519;45.408;10.962;2023-04-09T04:22:59;101113.81;;;14.42;83.10
45813;BME280;31519;45.408;10.962;2023-04-09T04:25:27;101112.72;;;14.60;82.66
45813;BME280;31519;45.408;10.962;2023-04-09T04:27:56;101122.00;;;14.54;82.12
45813;BME280;31519;45.408;10.962;2023-04-09T04:30:31;101114.69;;;14.20;83.87
45813;BME280;31519;45.408;10.962;2023-04-09T04:33:06;101120.41;;;14.45;83.23
45813;BME280;31519;45.408;10.962;2023-04-09T04:35:48;101130.97;;;14.41;84.39
45813;BME280;31519;45.408;10.962;2023-04-09T04:38:32;101137.59;;;14.44;83.55
45813;BME280;31519;45.408;10.962;2023-04-09T04:41:04;101136.59;;;14.23;85.02
45813;BME280;31519;45.408;10.962;2023-04-09T04:43:36;101134.47;;;14.50;83.60
45813;BME280;31519;45.408;10.962;2023-04-09T04:46:04;101135.41;;;14.37;83.62
45813;BME280;31519;45.408;10.962;2023-04-09T04:48:33;101135.25;;;14.51;83.28
45813;BME280;31519;45.408;10.962;2023-04-09T04:51:01;101138.34;;;14.27;81.38
45813;BME280;31519;45.408;10.962;2023-04-09T04:53:37;101142.50;;;14.42;80.35
45813;BME280;31519;45.408;10.962;2023-04-09T04:56:12;101132.72;;;14.54;78.49
45813;BME280;31519;45.408;10.962;2023-04-09T04:58:53;101137.44;;;14.49;78.35
45813;BME280;31519;45.408;10.962;2023-04-09T05:01:21;101133.81;;;14.53;75.10
45813;BME280;31519;45.408;10.962;2023-04-09T05:03:50;101140.13;;;14.57;74.52
45813;BME280;31519;45.408;10.962;2023-04-09T05:06:32;101140.91;;;14.49;74.09
45813;BME280;31519;45.408;10.962;2023-04-09T05:09:05;101143.44;;;14.46;74.55
45813;BME280;31519;45.408;10.962;2023-04-09T05:11:41;101152.84;;;14.35;73.53
45813;BME280;31519;45.408;10.962;2023-04-09T05:14:14;101154.28;;;14.32;72.37
45813;BME280;31519;45.408;10.962;2023-04-09T05:16:42;101149.47;;;14.03;70.86
45813;BME280;31519;45.408;10.962;2023-04-09T05:19:10;101154.13;;;14.29;71.23
45813;BME280;31519;45.408;10.962;2023-04-09T05:21:38;101162.13;;;14.20;70.01
45813;BME280;31519;45.408;10.962;2023-04-09T05:24:06;101157.31;;;14.39;68.66
45813;BME280;31519;45.408;10.962;2023-04-09T05:26:34;101158.13;;;14.57;68.43
45813;BME280;31519;45.408;10.962;2023-04-09T05:29:02;101166.59;;;14.33;69.43
45813;BME280;31519;45.408;10.962;2023-04-09T05:31:31;101157.69;;;14.07;68.43
45813;BME280;31519;45.408;10.962;2023-04-09T05:34:04;101155.56;;;13.87;69.40
45813;BME280;31519;45.408;10.962;2023-04-09T05:36:37;101161.75;;;13.96;69.17
45813;BME280;31519;45.408;10.962;2023-04-09T05:39:05;101168.28;;;14.20;68.40
45813;BME280;31519;45.408;10.962;2023-04-09T05:41:33;101164.78;;;14.11;67.53
45813;BME280;31519;45.408;10.962;2023-04-09T05:44:22;101165.34;;;14.39;66.46
45813;BME280;31519;45.408;10.962;2023-04-09T05:46:54;101165.63;;;14.20;66.97
45813;BME280;31519;45.408;10.962;2023-04-09T05:49:30;101170.25;;;14.37;67.25
45813;BME280;31519;45.408;10.962;2023-04-09T05:51:58;101171.34;;;14.36;65.67
45813;BME280;31519;45.408;10.962;2023-04-09T05:54:30;101171.22;;;14.58;65.64
45813;BME280;31519;45.408;10.962;2023-04-09T05:56:58;101170.25;;;14.63;65.61
45813;BME280;31519;45.408;10.962;2023-04-09T05:59:26;101169.16;;;14.81;64.65
45813;BME280;31519;45.408;10.962;2023-04-09T06:01:54;101170.13;;;14.85;64.90
45813;BME280;31519;45.408;10.962;2023-04-09T06:04:23;101174.38;;;14.60;64.21
45813;BME280;31519;45.408;10.962;2023-04-09T06:06:51;101178.16;;;14.51;64.25
45813;BME280;31519;45.408;10.962;2023-04-09T06:09:20;101176.75;;;14.71;64.60
45813;BME280;31519;45.408;10.962;2023-04-09T06:11:47;101189.53;;;14.74;64.16
45813;BME280;31519;45.408;10.962;2023-04-09T06:14:15;101186.84;;;14.74;63.88
45813;BME280;31519;45.408;10.962;2023-04-09T06:16:44;101191.75;;;14.80;63.80
45813;BME280;31519;45.408;10.962;2023-04-09T06:19:14;101196.47;;;14.75;64.02
45813;BME280;31519;45.408;10.962;2023-04-09T06:21:42;101186.22;;;15.20;63.11
45813;BME280;31519;45.408;10.962;2023-04-09T06:24:10;101192.50;;;15.24;62.18
45813;BME280;31519;45.408;10.962;2023-04-09T06:26:38;101199.47;;;15.07;61.89
45813;BME280;31519;45.408;10.962;2023-04-09T06:29:06;101194.88;;;14.99;62.37
45813;BME280;31519;45.408;10.962;2023-04-09T06:31:34;101195.22;;;15.06;61.81
45813;BME280;31519;45.408;10.962;2023-04-09T06:34:02;101197.56;;;15.25;61.71
45813;BME280;31519;45.408;10.962;2023-04-09T06:36:31;101198.81;;;15.36;62.41
45813;BME280;31519;45.408;10.962;2023-04-09T06:38:59;101203.09;;;15.12;62.25
45813;BME280;31519;45.408;10.962;2023-04-09T06:41:27;101207.19;;;15.18;61.53
45813;BME280;31519;45.408;10.962;2023-04-09T06:43:55;101207.97;;;15.35;61.11
45813;BME280;31519;45.408;10.962;2023-04-09T06:46:23;101205.28;;;15.27;60.81
45813;BME280;31519;45.408;10.962;2023-04-09T06:48:51;101205.00;;;15.20;59.98
45813;BME280;31519;45.408;10.962;2023-04-09T06:51:19;101206.06;;;15.27;59.28
45813;BME280;31519;45.408;10.962;2023-04-09T06:53:47;101208.13;;;15.22;60.80
45813;BME280;31519;45.408;10.962;2023-04-09T06:56:16;101215.56;;;15.33;59.11
45813;BME280;31519;45.408;10.962;2023-04-09T06:58:44;101221.41;;;15.52;59.57
45813;BME280;31519;45.408;10.962;2023-04-09T07:01:11;101224.97;;;15.74;58.15
45813;BME280;31519;45.408;10.962;2023-04-09T07:03:39;101221.06;;;15.63;58.49
45813;BME280;31519;45.408;10.962;2023-04-09T07:06:07;101233.16;;;15.86;57.40
45813;BME280;31519;45.408;10.962;2023-04-09T07:08:35;101225.03;;;16.03;56.66
45813;BME280;31519;45.408;10.962;2023-04-09T07:11:03;101223.56;;;16.44;54.61
45813;BME280;31519;45.408;10.962;2023-04-09T07:13:31;101225.94;;;16.16;54.47
45813;BME280;31519;45.408;10.962;2023-04-09T07:15:59;101224.44;;;16.27;52.69
45813;BME280;31519;45.408;10.962;2023-04-09T07:18:27;101224.88;;;16.37;52.06
45813;BME280;31519;45.408;10.962;2023-04-09T07:20:55;101225.53;;;16.34;52.06
45813;BME280;31519;45.408;10.962;2023-04-09T07:23:23;101225.34;;;16.39;52.61
45813;BME280;31519;45.408;10.962;2023-04-09T07:25:50;101224.81;;;16.75;52.09
45813;BME280;31519;45.408;10.962;2023-04-09T07:28:18;101231.19;;;16.71;52.67
45813;BME280;31519;45.408;10.962;2023-04-09T07:30:46;101232.50;;;16.56;52.40
45813;BME280;31519;45.408;10.962;2023-04-09T07:33:14;101234.41;;;17.26;50.80
45813;BME280;31519;45.408;10.962;2023-04-09T07:35:42;101235.03;;;17.23;49.90
45813;BME280;31519;45.408;10.962;2023-04-09T07:38:10;101233.75;;;16.88;50.71
45813;BME280;31519;45.408;10.962;2023-04-09T07:40:38;101240.06;;;17.13;50.54
45813;BME280;31519;45.408;10.962;2023-04-09T07:43:08;101240.66;;;17.51;49.65
45813;BME280;31519;45.408;10.962;2023-04-09T07:45:35;101245.00;;;17.44;48.83
45813;BME280;31519;45.408;10.962;2023-04-09T07:48:03;101244.44;;;16.97;49.82
45813;BME280;31519;45.408;10.962;2023-04-09T07:50:31;101259.50;;;16.01;51.56
45813;BME280;31519;45.408;10.962;2023-04-09T07:52:59;101256.56;;;16.23;51.44
45813;BME280;31519;45.408;10.962;2023-04-09T07:55:26;101255.59;;;16.87;50.72
45813;BME280;31519;45.408;10.962;2023-04-09T07:57:55;101258.16;;;16.83;50.09
45813;BME280;31519;45.408;10.962;2023-04-09T08:00:22;101250.34;;;17.11;49.07
45813;BME280;31519;45.408;10.962;2023-04-09T08:02:50;101248.38;;;17.20;48.17
45813;BME280;31519;45.408;10.962;2023-04-09T08:05:19;101258.63;;;16.85;49.32
45813;BME280;31519;45.408;10.962;2023-04-09T08:07:47;101260.72;;;16.79;48.75
45813;BME280;31519;45.408;10.962;2023-04-09T08:10:14;101258.34;;;17.40;47.12
45813;BME280;31519;45.408;10.962;2023-04-09T08:12:42;101264.81;;;17.93;46.32
45813;BME280;31519;45.408;10.962;2023-04-09T08:15:11;101266.75;;;18.29;45.34
45813;BME280;31519;45.408;10.962;2023-04-09T08:17:39;101272.94;;;18.17;45.15
45813;BME280;31519;45.408;10.962;2023-04-09T08:20:07;101265.94;;;17.92;44.71
45813;BME280;31519;45.408;10.962;2023-04-09T08:22:35;101268.94;;;17.24;45.60
45813;BME280;31519;45.408;10.962;2023-04-09T08:25:03;101262.97;;;17.52;45.47
45813;BME280;31519;45.408;10.962;2023-04-09T08:27:31;101269.56;;;18.20;44.72
45813;BME280;31519;45.408;10.962;2023-04-09T08:30:00;101278.31;;;18.29;43.87
45813;BME280;31519;45.408;10.962;2023-04-09T08:32:29;101284.63;;;18.33;43.22
45813;BME280;31519;45.408;10.962;2023-04-09T08:34:56;101277.81;;;17.58;44.62
45813;BME280;31519;45.408;10.962;2023-04-09T08:37:24;101274.59;;;17.32;45.11
45813;BME280;31519;45.408;10.962;2023-04-09T08:39:53;101285.34;;;17.85;43.32
45813;BME280;31519;45.408;10.962;2023-04-09T08:42:21;101284.94;;;17.62;43.35
45813;BME280;31519;45.408;10.962;2023-04-09T08:44:50;101277.03;;;17.78;44.27
45813;BME280;31519;45.408;10.962;2023-04-09T08:47:18;101272.44;;;17.04;44.14
45813;BME280;31519;45.408;10.962;2023-04-09T08:49:46;101273.31;;;17.29;44.66
45813;BME280;31519;45.408;10.962;2023-04-09T08:52:17;101277.69;;;17.75;43.58
45813;BME280;31519;45.408;10.962;2023-04-09T08:54:48;101274.16;;;17.95;44.17
45813;BME280;31519;45.408;10.962;2023-04-09T08:57:18;101276.97;;;17.66;44.20
45813;BME280;31519;45.408;10.962;2023-04-09T08:59:45;101277.53;;;18.04;42.86
45813;BME280;31519;45.408;10.962;2023-04-09T09:02:13;101277.78;;;18.72;42.29
45813;BME280;31519;45.408;10.962;2023-04-09T09:04:44;101272.44;;;19.00;42.28
45813;BME280;31519;45.408;10.962;2023-04-09T09:07:13;101274.44;;;19.15;41.29
45813;BME280;31519;45.408;10.962;2023-04-09T09:09:54;101265.84;;;18.85;42.14
45813;BME280;31519;45.408;10.962;2023-04-09T09:12:39;101265.69;;;17.97;42.65
45813;BME280;31519;45.408;10.962;2023-04-09T09:17:55;101276.75;;;17.59;43.63
45813;BME280;31519;45.408;10.962;2023-04-09T09:20:23;101270.38;;;18.57;42.69
45813;BME280;31519;45.408;10.962;2023-04-09T09:22:52;101275.47;;;18.98;41.74
45813;BME280;31519;45.408;10.962;2023-04-09T09:25:22;101274.22;;;18.56;41.58
45813;BME280;31519;45.408;10.962;2023-04-09T09:27:51;101271.13;;;18.82;41.72
45813;BME280;31519;45.408;10.962;2023-04-09T09:30:29;101274.53;;;18.54;41.39
45813;BME280;31519;45.408;10.962;2023-04-09T09:33:06;101277.78;;;18.36;42.03
45813;BME280;31519;45.408;10.962;2023-04-09T09:35:47;101269.03;;;17.49;43.27
45813;BME280;31519;45.408;10.962;2023-04-09T09:38:16;101268.69;;;17.71;43.84
45813;BME280;31519;45.408;10.962;2023-04-09T09:40:44;101272.63;;;17.73;43.32
45813;BME280;31519;45.408;10.962;2023-04-09T09:43:13;101272.06;;;17.47;43.74
45813;BME280;31519;45.408;10.962;2023-04-09T09:45:41;101275.53;;;18.26;43.14
45813;BME280;31519;45.408;10.962;2023-04-09T09:48:10;101271.03;;;18.78;42.10
45813;BME280;31519;45.408;10.962;2023-04-09T09:50:41;101270.81;;;18.83;41.69
45813;BME280;31519;45.408;10.962;2023-04-09T09:53:10;101280.03;;;18.70;42.28
45813;BME280;31519;45.408;10.962;2023-04-09T09:55:38;101266.31;;;18.87;41.68
45813;BME280;31519;45.408;10.962;2023-04-09T09:58:09;101268.31;;;18.05;43.17
45813;BME280;31519;45.408;10.962;2023-04-09T10:00:39;101265.16;;;18.03;42.93
45813;BME280;31519;45.408;10.962;2023-04-09T10:03:14;101264.19;;;18.44;42.20
45813;BME280;31519;45.408;10.962;2023-04-09T10:05:47;101272.13;;;18.89;40.74
45813;BME280;31519;45.408;10.962;2023-04-09T10:08:15;101268.97;;;18.99;41.21
45813;BME280;31519;45.408;10.962;2023-04-09T10:10:44;101262.56;;;19.32;39.68
45813;BME280;31519;45.408;10.962;2023-04-09T10:13:31;101271.94;;;18.82;40.73
45813;BME280;31519;45.408;10.962;2023-04-09T10:16:00;101261.38;;;18.53;41.35
45813;BME280;31519;45.408;10.962;2023-04-09T10:18:29;101268.31;;;18.90;41.38
45813;BME280;31519;45.408;10.962;2023-04-09T10:21:11;101270.78;;;18.95;40.69
45813;BME280;31519;45.408;10.962;2023-04-09T10:23:40;101267.41;;;19.26;40.06
45813;BME280;31519;45.408;10.962;2023-04-09T10:26:08;101255.34;;;18.56;41.29
45813;BME280;31519;45.408;10.962;2023-04-09T10:28:37;101257.78;;;18.37;41.76
45813;BME280;31519;45.408;10.962;2023-04-09T10:31:05;101255.38;;;17.87;42.94
45813;BME280;31519;45.408;10.962;2023-04-09T10:33:35;101261.13;;;18.34;41.64
45813;BME280;31519;45.408;10.962;2023-04-09T10:36:04;101259.44;;;18.17;41.32
45813;BME280;31519;45.408;10.962;2023-04-09T10:38:36;101252.72;;;19.12;40.82
45813;BME280;31519;45.408;10.962;2023-04-09T10:43:35;101255.94;;;18.89;40.08
45813;BME280;31519;45.408;10.962;2023-04-09T10:46:05;101249.56;;;18.57;39.35
45813;BME280;31519;45.408;10.962;2023-04-09T10:48:33;101244.59;;;18.11;40.82
45813;BME280;31519;45.408;10.962;2023-04-09T10:51:01;101246.63;;;18.38;40.63
45813;BME280;31519;45.408;10.962;2023-04-09T10:53:32;101245.91;;;18.90;39.01
45813;BME280;31519;45.408;10.962;2023-04-09T10:56:00;101243.25;;;20.05;38.07
45813;BME280;31519;45.408;10.962;2023-04-09T10:58:27;101245.44;;;20.15;37.23
45813;BME280;31519;45.408;10.962;2023-04-09T11:00:55;101240.91;;;19.87;37.26
45813;BME280;31519;45.408;10.962;2023-04-09T11:03:28;101239.78;;;19.45;37.69
45813;BME280;31519;45.408;10.962;2023-04-09T11:06:00;101236.97;;;19.69;37.40
45813;BME280;31519;45.408;10.962;2023-04-09T11:08:30;101228.34;;;19.79;37.47
45813;BME280;31519;45.408;10.962;2023-04-09T11:10:58;101221.25;;;20.38;37.31
45813;BME280;31519;45.408;10.962;2023-04-09T11:13:29;101237.75;;;19.70;37.49
45813;BME280;31519;45.408;10.962;2023-04-09T11:15:57;101235.25;;;18.81;39.55
45813;BME280;31519;45.408;10.962;2023-04-09T11:18:28;101220.56;;;18.67;40.10
45813;BME280;31519;45.408;10.962;2023-04-09T11:20:56;101219.00;;;19.06;39.41
45813;BME280;31519;45.408;10.962;2023-04-09T11:23:25;101224.22;;;19.85;38.11
45813;BME280;31519;45.408;10.962;2023-04-09T11:25:53;101222.94;;;20.11;37.57
45813;BME280;31519;45.408;10.962;2023-04-09T11:28:21;101215.25;;;20.63;36.84
45813;BME280;31519;45.408;10.962;2023-04-09T11:30:49;101218.28;;;20.43;36.64
45813;BME280;31519;45.408;10.962;2023-04-09T11:33:18;101224.50;;;20.62;37.07
45813;BME280;31519;45.408;10.962;2023-04-09T11:35:47;101219.00;;;20.94;36.07
45813;BME280;31519;45.408;10.962;2023-04-09T11:38:15;101225.88;;;20.37;37.19
45813;BME280;31519;45.408;10.962;2023-04-09T11:40:43;101220.47;;;20.72;36.18
45813;BME280;31519;45.408;10.962;2023-04-09T11:43:18;101222.88;;;20.77;36.06
45813;BME280;31519;45.408;10.962;2023-04-09T11:45:47;101222.00;;;20.89;36.09
45813;BME280;31519;45.408;10.962;2023-04-09T11:48:16;101218.78;;;21.02;35.89
45813;BME280;31519;45.408;10.962;2023-04-09T11:50:49;101218.44;;;21.23;35.42
45813;BME280;31519;45.408;10.962;2023-04-09T11:53:18;101214.88;;;20.81;36.13
45813;BME280;31519;45.408;10.962;2023-04-09T11:55:49;101216.50;;;20.85;35.90
45813;BME280;31519;45.408;10.962;2023-04-09T11:58:22;101218.03;;;21.21;35.12
45813;BME280;31519;45.408;10.962;2023-04-09T12:00:54;101210.97;;;20.43;36.23
45813;BME280;31519;45.408;10.962;2023-04-09T12:03:29;101204.81;;;20.46;36.56
45813;BME280;31519;45.408;10.962;2023-04-09T12:06:01;101206.09;;;20.33;36.45
45813;BME280;31519;45.408;10.962;2023-04-09T12:08:29;101201.06;;;20.51;36.04
45813;BME280;31519;45.408;10.962;2023-04-09T12:11:06;101206.09;;;20.87;35.77
45813;BME280;31519;45.408;10.962;2023-04-09T12:13:34;101201.31;;;21.19;34.74
45813;BME280;31519;45.408;10.962;2023-04-09T12:16:02;101200.78;;;21.97;33.84
45813;BME280;31519;45.408;10.962;2023-04-09T12:18:30;101191.31;;;21.42;34.61
45813;BME280;31519;45.408;10.962;2023-04-09T12:21:02;101192.91;;;21.05;35.07
45813;BME280;31519;45.408;10.962;2023-04-09T12:23:30;101191.41;;;20.18;36.33
45813;BME280;31519;45.408;10.962;2023-04-09T12:25:58;101183.56;;;20.83;35.30
45813;BME280;31519;45.408;10.962;2023-04-09T12:28:29;101189.16;;;21.51;34.37
45813;BME280;31519;45.408;10.962;2023-04-09T12:30:57;101187.63;;;22.22;33.17
45813;BME280;31519;45.408;10.962;2023-04-09T12:33:26;101180.44;;;22.10;33.19
45813;BME280;31519;45.408;10.962;2023-04-09T12:35:53;101172.06;;;23.09;31.92
45813;BME280;31519;45.408;10.962;2023-04-09T12:38:25;101174.66;;;23.75;31.38
45813;BME280;31519;45.408;10.962;2023-04-09T12:40:53;101178.28;;;22.76;32.26
45813;BME280;31519;45.408;10.962;2023-04-09T12:43:20;101175.09;;;22.70;32.40
45813;BME280;31519;45.408;10.962;2023-04-09T12:45:48;101178.00;;;22.28;33.08
45813;BME280;31519;45.408;10.962;2023-04-09T12:48:16;101176.88;;;23.63;31.17
45813;BME280;31519;45.408;10.962;2023-04-09T12:50:44;101175.50;;;24.38;30.51
45813;BME280;31519;45.408;10.962;2023-04-09T12:53:12;101172.72;;;25.21;29.22
45813;BME280;31519;45.408;10.962;2023-04-09T12:55:39;101167.06;;;24.71;29.38
45813;BME280;31519;45.408;10.962;2023-04-09T12:58:09;101181.41;;;24.50;29.17
45813;BME280;31519;45.408;10.962;2023-04-09T13:00:37;101179.34;;;25.20;28.89
45813;BME280;31519;45.408;10.962;2023-04-09T13:03:05;101179.59;;;24.79;29.13
45813;BME280;31519;45.408;10.962;2023-04-09T13:05:33;101172.47;;;23.48;31.50
45813;BME280;31519;45.408;10.962;2023-04-09T13:08:02;101170.41;;;23.78;31.11
45813;BME280;31519;45.408;10.962;2023-04-09T13:10:30;101171.72;;;24.02;30.95
45813;BME280;31519;45.408;10.962;2023-04-09T13:12:58;101172.44;;;23.44;30.95